sensor_id;sensor_type;location;lat;lon;timestamp;temperature;humidity
68813;DHT22;55808;48.112;11.552;2022-09-13T00:00:50;12.20;99.90
68813;DHT22;55808;48.112;11.552;2022-09-13T00:03:16;12.10;99.90
68813;DHT22;55808;48.112;11.552;2022-09-13T00:05:42;12.10;99.90
68813;DHT22;55808;48.112;11.552;2022-09-13T00:08:08;12.00;99.90
68813;DHT22;55808;48.112;11.552;2022-09-13T00:10:36;12.00;99.90
68813;DHT22;55808;48.112;11.552;2022-09-13T00:13:04;12.10;99.90
68813;DHT22;55808;48.112;11.552;2022-09-13T00:15:30;12.00;99.90
68813;DHT22;55808;48.112;11.552;2022-09-13T00:17:56;11.90;99.90
68813;DHT22;55808;48.112;11.552;2022-09-13T00:20:22;11.90;99.90
68813;DHT22;55808;48.112;11.552;2022-09-13T00:22:47;11.90;99.90
68813;DHT22;55808;48.112;11.552;2022-09-13T00:25:13;11.90;99.90
68813;DHT22;55808;48.112;11.552;2022-09-13T00:27:39;11.90;99.90
68813;DHT22;55808;48.112;11.552;2022-09-13T00:30:06;11.90;99.90
68813;DHT22;55808;48.112;11.552;2022-09-13T00:32:33;11.80;99.90
68813;DHT22;55808;48.112;11.552;2022-09-13T00:34:59;11.80;99.90
68813;DHT22;55808;48.112;11.552;2022-09-13T00:37:25;11.80;99.90
68813;DHT22;55808;48.112;11.552;2022-09-13T00:39:51;11.80;99.90
68813;DHT22;55808;48.112;11.552;2022-09-13T00:42:17;11.70;99.90
68813;DHT22;55808;48.112;11.552;2022-09-13T00:47:29;11.70;99.90
68813;DHT22;55808;48.112;11.552;2022-09-13T00:50:19;11.70;99.90
68813;DHT22;55808;48.112;11.552;2022-09-13T00:52:49;11.60;99.90
68813;DHT22;55808;48.112;11.552;2022-09-13T00:55:40;11.70;99.90
68813;DHT22;55808;48.112;11.552;2022-09-13T00:58:12;11.60;99.90
68813;DHT22;55808;48.112;11.552;2022-09-13T01:00:38;11.60;99.90
68813;DHT22;55808;48.112;11.552;2022-09-13T01:03:08;11.60;99.90
68813;DHT22;55808;48.112;11.552;2022-09-13T01:05:40;11.60;99.90
68813;DHT22;55808;48.112;11.552;2022-09-13T01:08:07;11.60;99.90
68813;DHT22;55808;48.112;11.552;2022-09-13T01:10:39;11.60;99.90
68813;DHT22;55808;48.112;11.552;2022-09-13T01:13:12;11.50;99.90
68813;DHT22;55808;48.112;11.552;2022-09-13T01:15:39;11.50;99.90
68813;DHT22;55808;48.112;11.552;2022-09-13T01:18:06;11.50;99.90
68813;DHT22;55808;48.112;11.552;2022-09-13T01:23:57;11.40;99.90
68813;DHT22;55808;48.112;11.552;2022-09-13T01:43:51;11.30;99.90
68813;DHT22;55808;48.112;11.552;2022-09-13T01:46:52;11.20;99.90
68813;DHT22;55808;48.112;11.552;2022-09-13T01:52:18;11.20;99.90
68813;DHT22;55808;48.112;11.552;2022-09-13T01:57:34;11.20;99.90
68813;DHT22;55808;48.112;11.552;2022-09-13T02:08:17;11.20;99.90
68813;DHT22;55808;48.112;11.552;2022-09-13T02:10:50;11.20;99.90
68813;DHT22;55808;48.112;11.552;2022-09-13T02:13:25;11.20;99.90
68813;DHT22;55808;48.112;11.552;2022-09-13T02:15:57;11.20;99.90
68813;DHT22;55808;48.112;11.552;2022-09-13T02:18:30;11.20;99.90
68813;DHT22;55808;48.112;11.552;2022-09-13T02:21:01;11.20;99.90
68813;DHT22;55808;48.112;11.552;2022-09-13T02:26:29;11.10;99.90
68813;DHT22;55808;48.112;11.552;2022-09-13T02:28:57;11.10;99.90
68813;DHT22;55808;48.112;11.552;2022-09-13T02:31:32;11.30;99.90
68813;DHT22;55808;48.112;11.552;2022-09-13T02:34:22;11.30;99.90
68813;DHT22;55808;48.112;11.552;2022-09-13T02:36:53;11.30;99.90
68813;DHT22;55808;48.112;11.552;2022-09-13T02:39:23;11.30;99.90
68813;DHT22;55808;48.112;11.552;2022-09-13T02:41:55;11.30;99.90
68813;DHT22;55808;48.112;11.552;2022-09-13T02:44:50;11.30;99.90
68813;DHT22;55808;48.112;11.552;2022-09-13T02:58:45;11.20;99.90
68813;DHT22;55808;48.112;11.552;2022-09-13T03:01:13;11.20;99.90
68813;DHT22;55808;48.112;11.552;2022-09-13T03:03:39;11.20;99.90
68813;DHT22;55808;48.112;11.552;2022-09-13T03:06:05;11.20;99.90
68813;DHT22;55808;48.112;11.552;2022-09-13T03:08:31;11.20;99.90
68813;DHT22;55808;48.112;11.552;2022-09-13T03:14:23;11.10;99.90
68813;DHT22;55808;48.112;11.552;2022-09-13T03:17:14;11.10;99.90
68813;DHT22;55808;48.112;11.552;2022-09-13T03:26:10;11.10;99.90
68813;DHT22;55808;48.112;11.552;2022-09-13T03:31:17;11.10;99.90
68813;DHT22;55808;48.112;11.552;2022-09-13T03:36:45;11.00;99.90
68813;DHT22;55808;48.112;11.552;2022-09-13T03:39:35;11.10;99.90
68813;DHT22;55808;48.112;11.552;2022-09-13T03:42:17;11.00;99.90
68813;DHT22;55808;48.112;11.552;2022-09-13T03:44:46;10.90;99.90
68813;DHT22;55808;48.112;11.552;2022-09-13T03:47:14;10.90;99.90
68813;DHT22;55808;48.112;11.552;2022-09-13T03:49:41;11.00;99.90
68813;DHT22;55808;48.112;11.552;2022-09-13T03:52:07;11.00;99.90
68813;DHT22;55808;48.112;11.552;2022-09-13T03:54:36;11.10;99.90
68813;DHT22;55808;48.112;11.552;2022-09-13T03:57:16;11.00;99.90
68813;DHT22;55808;48.112;11.552;2022-09-13T03:59:54;11.00;99.90
68813;DHT22;55808;48.112;11.552;2022-09-13T04:02:22;11.10;99.90
68813;DHT22;55808;48.112;11.552;2022-09-13T04:04:49;11.00;99.90
68813;DHT22;55808;48.112;11.552;2022-09-13T04:07:18;11.00;99.90
68813;DHT22;55808;48.112;11.552;2022-09-13T04:09:44;11.10;99.90
68813;DHT22;55808;48.112;11.552;2022-09-13T04:12:10;11.10;99.90
68813;DHT22;55808;48.112;11.552;2022-09-13T04:14:36;11.10;99.90
68813;DHT22;55808;48.112;11.552;2022-09-13T04:17:02;11.10;99.90
68813;DHT22;55808;48.112;11.552;2022-09-13T04:19:28;11.10;99.90
68813;DHT22;55808;48.112;11.552;2022-09-13T04:21:54;11.00;99.90
68813;DHT22;55808;48.112;11.552;2022-09-13T04:24:25;11.10;99.90
68813;DHT22;55808;48.112;11.552;2022-09-13T04:26:51;11.10;99.90
68813;DHT22;55808;48.112;11.552;2022-09-13T04:29:19;11.10;99.90
68813;DHT22;55808;48.112;11.552;2022-09-13T04:31:47;11.10;99.90
68813;DHT22;55808;48.112;11.552;2022-09-13T04:34:13;11.00;99.90
68813;DHT22;55808;48.112;11.552;2022-09-13T04:36:39;11.00;99.90
68813;DHT22;55808;48.112;11.552;2022-09-13T04:39:05;11.00;99.90
68813;DHT22;55808;48.112;11.552;2022-09-13T04:41:31;11.10;99.90
68813;DHT22;55808;48.112;11.552;2022-09-13T04:43:58;11.00;99.90
68813;DHT22;55808;48.112;11.552;2022-09-13T04:46:24;11.10;99.90
68813;DHT22;55808;48.112;11.552;2022-09-13T04:48:50;11.10;99.90
68813;DHT22;55808;48.112;11.552;2022-09-13T04:51:16;11.10;99.90
68813;DHT22;55808;48.112;11.552;2022-09-13T04:53:45;11.10;99.90
68813;DHT22;55808;48.112;11.552;2022-09-13T04:56:11;11.20;99.90
68813;DHT22;55808;48.112;11.552;2022-09-13T04:58:40;11.20;99.90
68813;DHT22;55808;48.112;11.552;2022-09-13T05:01:08;11.30;99.90
68813;DHT22;55808;48.112;11.552;2022-09-13T05:03:35;11.30;99.90
68813;DHT22;55808;48.112;11.552;2022-09-13T05:06:10;11.40;99.90
68813;DHT22;55808;48.112;11.552;2022-09-13T05:08:36;11.40;99.90
68813;DHT22;55808;48.112;11.552;2022-09-13T05:11:03;11.50;99.90
68813;DHT22;55808;48.112;11.552;2022-09-13T05:13:29;11.50;99.90
68813;DHT22;55808;48.112;11.552;2022-09-13T05:15:59;11.60;99.90
68813;DHT22;55808;48.112;11.552;2022-09-13T05:18:29;11.60;99.90
68813;DHT22;55808;48.112;11.552;2022-09-13T05:20:56;11.60;99.90
68813;DHT22;55808;48.112;11.552;2022-09-13T05:23:23;11.80;99.90
68813;DHT22;55808;48.112;11.552;2022-09-13T05:26:01;11.80;99.90
68813;DHT22;55808;48.112;11.552;2022-09-13T05:28:34;11.80;99.90
68813;DHT22;55808;48.112;11.552;2022-09-13T05:31:07;11.80;99.90
68813;DHT22;55808;48.112;11.552;2022-09-13T05:33:36;11.90;99.90
68813;DHT22;55808;48.112;11.552;2022-09-13T05:36:05;11.90;99.90
68813;DHT22;55808;48.112;11.552;2022-09-13T05:38:31;12.00;99.90
68813;DHT22;55808;48.112;11.552;2022-09-13T05:40:59;12.00;99.90
68813;DHT22;55808;48.112;11.552;2022-09-13T05:43:27;12.00;99.90
68813;DHT22;55808;48.112;11.552;2022-09-13T05:46:12;12.10;99.90
68813;DHT22;55808;48.112;11.552;2022-09-13T05:48:39;12.10;99.90
68813;DHT22;55808;48.112;11.552;2022-09-13T05:51:06;12.20;99.90
68813;DHT22;55808;48.112;11.552;2022-09-13T05:53:33;12.30;99.90
68813;DHT22;55808;48.112;11.552;2022-09-13T05:55:59;12.30;99.90
68813;DHT22;55808;48.112;11.552;2022-09-13T05:58:25;12.20;99.90
68813;DHT22;55808;48.112;11.552;2022-09-13T06:00:54;12.20;99.90
68813;DHT22;55808;48.112;11.552;2022-09-13T06:03:21;12.20;99.90
68813;DHT22;55808;48.112;11.552;2022-09-13T06:05:47;12.20;99.90
68813;DHT22;55808;48.112;11.552;2022-09-13T06:08:13;12.30;99.90
68813;DHT22;55808;48.112;11.552;2022-09-13T06:10:38;12.40;99.90
68813;DHT22;55808;48.112;11.552;2022-09-13T06:13:04;12.40;99.90
68813;DHT22;55808;48.112;11.552;2022-09-13T06:15:30;12.50;99.90
68813;DHT22;55808;48.112;11.552;2022-09-13T06:17:55;12.60;99.90
68813;DHT22;55808;48.112;11.552;2022-09-13T06:20:21;12.70;99.90
68813;DHT22;55808;48.112;11.552;2022-09-13T06:22:47;12.70;99.90
68813;DHT22;55808;48.112;11.552;2022-09-13T06:25:13;12.80;99.90
68813;DHT22;55808;48.112;11.552;2022-09-13T06:27:39;13.00;99.90
68813;DHT22;55808;48.112;11.552;2022-09-13T06:30:05;13.10;99.90
68813;DHT22;55808;48.112;11.552;2022-09-13T06:32:34;13.20;99.90
68813;DHT22;55808;48.112;11.552;2022-09-13T06:34:59;13.30;99.90
68813;DHT22;55808;48.112;11.552;2022-09-13T06:37:25;13.30;99.90
68813;DHT22;55808;48.112;11.552;2022-09-13T06:39:51;13.40;99.90
68813;DHT22;55808;48.112;11.552;2022-09-13T06:42:16;13.40;99.90
68813;DHT22;55808;48.112;11.552;2022-09-13T06:44:42;13.40;99.90
68813;DHT22;55808;48.112;11.552;2022-09-13T06:47:10;13.50;99.90
68813;DHT22;55808;48.112;11.552;2022-09-13T06:49:36;13.70;99.90
68813;DHT22;55808;48.112;11.552;2022-09-13T06:52:02;13.60;99.90
68813;DHT22;55808;48.112;11.552;2022-09-13T06:54:28;13.80;99.90
68813;DHT22;55808;48.112;11.552;2022-09-13T06:56:55;13.80;99.90
68813;DHT22;55808;48.112;11.552;2022-09-13T06:59:21;14.00;99.90
68813;DHT22;55808;48.112;11.552;2022-09-13T07:01:46;14.00;99.90
68813;DHT22;55808;48.112;11.552;2022-09-13T07:04:15;14.10;99.90
68813;DHT22;55808;48.112;11.552;2022-09-13T07:06:46;14.20;99.90
68813;DHT22;55808;48.112;11.552;2022-09-13T07:09:20;14.20;99.90
68813;DHT22;55808;48.112;11.552;2022-09-13T07:11:47;14.20;99.90
68813;DHT22;55808;48.112;11.552;2022-09-13T07:14:17;14.20;99.90
68813;DHT22;55808;48.112;11.552;2022-09-13T07:16:44;14.40;99.90
68813;DHT22;55808;48.112;11.552;2022-09-13T07:19:19;14.50;99.90
68813;DHT22;55808;48.112;11.552;2022-09-13T07:21:47;14.60;99.90
68813;DHT22;55808;48.112;11.552;2022-09-13T07:24:17;14.80;99.90
68813;DHT22;55808;48.112;11.552;2022-09-13T07:26:44;14.80;99.90
68813;DHT22;55808;48.112;11.552;2022-09-13T07:29:17;15.00;99.90
68813;DHT22;55808;48.112;11.552;2022-09-13T07:31:49;15.10;99.90
68813;DHT22;55808;48.112;11.552;2022-09-13T07:34:21;15.10;99.90
68813;DHT22;55808;48.112;11.552;2022-09-13T07:36:50;15.10;99.90
68813;DHT22;55808;48.112;11.552;2022-09-13T07:39:18;15.30;99.90
68813;DHT22;55808;48.112;11.552;2022-09-13T07:41:44;15.40;99.90
68813;DHT22;55808;48.112;11.552;2022-09-13T07:44:11;15.50;99.90
68813;DHT22;55808;48.112;11.552;2022-09-13T07:46:38;15.60;99.90
68813;DHT22;55808;48.112;11.552;2022-09-13T07:49:06;15.60;99.90
68813;DHT22;55808;48.112;11.552;2022-09-13T07:51:33;15.60;99.90
68813;DHT22;55808;48.112;11.552;2022-09-13T07:54:05;15.80;99.90
68813;DHT22;55808;48.112;11.552;2022-09-13T07:56:33;15.80;99.90
68813;DHT22;55808;48.112;11.552;2022-09-13T07:59:01;15.90;99.90
68813;DHT22;55808;48.112;11.552;2022-09-13T08:01:29;16.10;99.90
68813;DHT22;55808;48.112;11.552;2022-09-13T08:03:56;16.40;99.90
68813;DHT22;55808;48.112;11.552;2022-09-13T08:06:23;16.50;99.90
68813;DHT22;55808;48.112;11.552;2022-09-13T08:08:49;16.60;99.90
68813;DHT22;55808;48.112;11.552;2022-09-13T08:11:41;16.60;99.90
68813;DHT22;55808;48.112;11.552;2022-09-13T08:14:10;16.90;97.90
68813;DHT22;55808;48.112;11.552;2022-09-13T08:16:36;17.10;97.50
68813;DHT22;55808;48.112;11.552;2022-09-13T08:19:04;17.50;97.50
68813;DHT22;55808;48.112;11.552;2022-09-13T08:21:37;17.40;96.80
68813;DHT22;55808;48.112;11.552;2022-09-13T08:24:04;17.50;96.30
68813;DHT22;55808;48.112;11.552;2022-09-13T08:26:31;17.60;96.50
68813;DHT22;55808;48.112;11.552;2022-09-13T08:28:59;17.70;94.50
68813;DHT22;55808;48.112;11.552;2022-09-13T08:31:26;17.70;95.80
68813;DHT22;55808;48.112;11.552;2022-09-13T08:33:53;17.90;93.90
68813;DHT22;55808;48.112;11.552;2022-09-13T08:36:20;18.20;94.50
68813;DHT22;55808;48.112;11.552;2022-09-13T08:38:50;18.00;94.90
68813;DHT22;55808;48.112;11.552;2022-09-13T08:44:17;18.20;94.40
68813;DHT22;55808;48.112;11.552;2022-09-13T08:46:48;18.40;93.50
68813;DHT22;55808;48.112;11.552;2022-09-13T08:49:24;18.30;94.50
68813;DHT22;55808;48.112;11.552;2022-09-13T08:52:02;18.20;94.00
68813;DHT22;55808;48.112;11.552;2022-09-13T08:54:31;18.40;93.90
68813;DHT22;55808;48.112;11.552;2022-09-13T08:57:00;18.20;91.50
68813;DHT22;55808;48.112;11.552;2022-09-13T09:02:17;18.90;90.20
68813;DHT22;55808;48.112;11.552;2022-09-13T09:04:54;18.70;90.00
68813;DHT22;55808;48.112;11.552;2022-09-13T09:07:27;18.80;90.50
68813;DHT22;55808;48.112;11.552;2022-09-13T09:10:06;18.90;90.30
68813;DHT22;55808;48.112;11.552;2022-09-13T09:17:35;19.40;87.90
68813;DHT22;55808;48.112;11.552;2022-09-13T09:20:35;19.50;87.40
68813;DHT22;55808;48.112;11.552;2022-09-13T09:23:13;19.60;87.90
68813;DHT22;55808;48.112;11.552;2022-09-13T09:25:44;19.60;85.30
68813;DHT22;55808;48.112;11.552;2022-09-13T09:28:15;19.40;85.00
68813;DHT22;55808;48.112;11.552;2022-09-13T09:31:09;19.40;86.70
68813;DHT22;55808;48.112;11.552;2022-09-13T09:33:51;19.60;87.40
68813;DHT22;55808;48.112;11.552;2022-09-13T09:39:03;19.60;84.10
68813;DHT22;55808;48.112;11.552;2022-09-13T09:41:32;19.40;84.00
68813;DHT22;55808;48.112;11.552;2022-09-13T09:46:45;19.50;84.00
68813;DHT22;55808;48.112;11.552;2022-09-13T09:49:36;19.50;83.80
68813;DHT22;55808;48.112;11.552;2022-09-13T09:52:38;19.90;82.80
68813;DHT22;55808;48.112;11.552;2022-09-13T09:55:26;20.00;81.70
68813;DHT22;55808;48.112;11.552;2022-09-13T09:57:56;20.00;82.60
68813;DHT22;55808;48.112;11.552;2022-09-13T10:00:25;20.00;82.20
68813;DHT22;55808;48.112;11.552;2022-09-13T10:02:54;20.00;82.70
68813;DHT22;55808;48.112;11.552;2022-09-13T10:05:22;20.50;79.70
68813;DHT22;55808;48.112;11.552;2022-09-13T10:08:06;20.60;80.00
68813;DHT22;55808;48.112;11.552;2022-09-13T10:10:43;20.50;82.50
68813;DHT22;55808;48.112;11.552;2022-09-13T10:13:19;20.80;78.50
68813;DHT22;55808;48.112;11.552;2022-09-13T10:16:00;21.10;78.90
68813;DHT22;55808;48.112;11.552;2022-09-13T10:18:32;21.10;78.30
68813;DHT22;55808;48.112;11.552;2022-09-13T10:21:03;21.10;77.70
68813;DHT22;55808;48.112;11.552;2022-09-13T10:23:31;21.30;77.30
68813;DHT22;55808;48.112;11.552;2022-09-13T10:29:04;21.10;77.40
68813;DHT22;55808;48.112;11.552;2022-09-13T10:31:44;21.10;76.80
68813;DHT22;55808;48.112;11.552;2022-09-13T10:39:19;21.30;76.40
68813;DHT22;55808;48.112;11.552;2022-09-13T10:44:44;21.80;77.60
68813;DHT22;55808;48.112;11.552;2022-09-13T10:47:17;22.20;75.00
68813;DHT22;55808;48.112;11.552;2022-09-13T10:49:54;22.60;75.40
68813;DHT22;55808;48.112;11.552;2022-09-13T10:52:35;22.90;73.40
68813;DHT22;55808;48.112;11.552;2022-09-13T10:57:53;26.00;66.00
68813;DHT22;55808;48.112;11.552;2022-09-13T11:00:26;27.50;62.00
68813;DHT22;55808;48.112;11.552;2022-09-13T11:11:46;29.60;52.70
68813;DHT22;55808;48.112;11.552;2022-09-13T11:20:18;30.80;50.20
68813;DHT22;55808;48.112;11.552;2022-09-13T11:28:54;26.50;58.50
68813;DHT22;55808;48.112;11.552;2022-09-13T11:31:54;26.30;57.80
68813;DHT22;55808;48.112;11.552;2022-09-13T11:34:36;26.10;56.50
68813;DHT22;55808;48.112;11.552;2022-09-13T11:39:58;27.30;58.10
68813;DHT22;55808;48.112;11.552;2022-09-13T11:43:02;26.60;58.00
68813;DHT22;55808;48.112;11.552;2022-09-13T11:45:33;26.30;56.40
68813;DHT22;55808;48.112;11.552;2022-09-13T11:48:25;25.70;58.20
68813;DHT22;55808;48.112;11.552;2022-09-13T11:56:34;24.50;65.10
68813;DHT22;55808;48.112;11.552;2022-09-13T12:01:38;24.40;61.50
68813;DHT22;55808;48.112;11.552;2022-09-13T12:06:47;24.60;61.20
68813;DHT22;55808;48.112;11.552;2022-09-13T12:11:45;24.80;60.00
68813;DHT22;55808;48.112;11.552;2022-09-13T12:14:16;24.70;60.70
68813;DHT22;55808;48.112;11.552;2022-09-13T12:16:49;24.60;62.90
68813;DHT22;55808;48.112;11.552;2022-09-13T12:19:24;25.30;59.50
68813;DHT22;55808;48.112;11.552;2022-09-13T12:21:56;25.80;63.10
68813;DHT22;55808;48.112;11.552;2022-09-13T12:24:51;26.90;56.50
68813;DHT22;55808;48.112;11.552;2022-09-13T12:27:33;27.80;57.30
68813;DHT22;55808;48.112;11.552;2022-09-13T12:30:06;28.10;56.50
68813;DHT22;55808;48.112;11.552;2022-09-13T12:32:37;28.10;57.10
68813;DHT22;55808;48.112;11.552;2022-09-13T12:40:33;28.40;52.20
68813;DHT22;55808;48.112;11.552;2022-09-13T12:52:38;29.60;51.90
68813;DHT22;55808;48.112;11.552;2022-09-13T12:57:58;29.80;50.20
68813;DHT22;55808;48.112;11.552;2022-09-13T13:00:31;29.70;54.20
68813;DHT22;55808;48.112;11.552;2022-09-13T13:05:45;29.60;54.70
68813;DHT22;55808;48.112;11.552;2022-09-13T13:13:36;29.00;51.40
68813;DHT22;55808;48.112;11.552;2022-09-13T13:18:49;28.60;50.50
68813;DHT22;55808;48.112;11.552;2022-09-13T13:26:54;29.30;50.10
68813;DHT22;55808;48.112;11.552;2022-09-13T13:29:30;29.30;48.80
68813;DHT22;55808;48.112;11.552;2022-09-13T13:34:39;28.90;49.90
68813;DHT22;55808;48.112;11.552;2022-09-13T13:39:42;28.90;48.30
68813;DHT22;55808;48.112;11.552;2022-09-13T13:52:54;28.60;49.20
68813;DHT22;55808;48.112;11.552;2022-09-13T13:55:43;28.20;49.10
68813;DHT22;55808;48.112;11.552;2022-09-13T13:58:44;28.10;50.40
68813;DHT22;55808;48.112;11.552;2022-09-13T14:01:16;28.20;51.50
68813;DHT22;55808;48.112;11.552;2022-09-13T14:04:31;28.30;49.50
68813;DHT22;55808;48.112;11.552;2022-09-13T14:20:59;26.30;53.50
68813;DHT22;55808;48.112;11.552;2022-09-13T14:23:25;25.90;53.50
68813;DHT22;55808;48.112;11.552;2022-09-13T14:25:56;25.60;54.40
68813;DHT22;55808;48.112;11.552;2022-09-13T14:28:23;25.40;55.20
68813;DHT22;55808;48.112;11.552;2022-09-13T14:30:57;25.40;55.10
68813;DHT22;55808;48.112;11.552;2022-09-13T14:33:26;25.40;55.00
68813;DHT22;55808;48.112;11.552;2022-09-13T14:36:03;25.60;54.70
68813;DHT22;55808;48.112;11.552;2022-09-13T14:38:31;26.00;53.50
68813;DHT22;55808;48.112;11.552;2022-09-13T14:41:20;26.30;54.10
68813;DHT22;55808;48.112;11.552;2022-09-13T14:43:47;25.90;54.80
68813;DHT22;55808;48.112;11.552;2022-09-13T14:46:30;25.40;56.20
68813;DHT22;55808;48.112;11.552;2022-09-13T14:49:06;25.20;55.80
68813;DHT22;55808;48.112;11.552;2022-09-13T14:51:55;25.10;57.00
68813;DHT22;55808;48.112;11.552;2022-09-13T14:57:00;25.40;55.30
68813;DHT22;55808;48.112;11.552;2022-09-13T15:01:57;25.90;55.40
68813;DHT22;55808;48.112;11.552;2022-09-13T15:04:23;25.50;55.40
68813;DHT22;55808;48.112;11.552;2022-09-13T15:07:08;25.20;56.30
68813;DHT22;55808;48.112;11.552;2022-09-13T15:09:34;25.00;57.00
68813;DHT22;55808;48.112;11.552;2022-09-13T15:12:02;25.00;57.50
68813;DHT22;55808;48.112;11.552;2022-09-13T15:14:30;25.00;57.00
68813;DHT22;55808;48.112;11.552;2022-09-13T15:19:48;24.70;57.60
68813;DHT22;55808;48.112;11.552;2022-09-13T15:22:32;24.60;58.10
68813;DHT22;55808;48.112;11.552;2022-09-13T15:25:01;24.60;57.50
68813;DHT22;55808;48.112;11.552;2022-09-13T15:27:30;24.50;56.80
68813;DHT22;55808;48.112;11.552;2022-09-13T15:29:58;24.50;57.30
68813;DHT22;55808;48.112;11.552;2022-09-13T15:32:31;24.30;59.20
68813;DHT22;55808;48.112;11.552;2022-09-13T15:34:58;24.30;59.40
68813;DHT22;55808;48.112;11.552;2022-09-13T15:37:32;24.30;58.00
68813;DHT22;55808;48.112;11.552;2022-09-13T15:40:21;24.30;57.70
68813;DHT22;55808;48.112;11.552;2022-09-13T15:42:49;24.30;59.20
68813;DHT22;55808;48.112;11.552;2022-09-13T15:45:17;24.30;61.10
68813;DHT22;55808;48.112;11.552;2022-09-13T15:47:45;24.20;62.90
68813;DHT22;55808;48.112;11.552;2022-09-13T15:50:21;24.10;64.70
68813;DHT22;55808;48.112;11.552;2022-09-13T15:52:47;23.90;64.90
68813;DHT22;55808;48.112;11.552;2022-09-13T15:55:13;23.80;66.50
68813;DHT22;55808;48.112;11.552;2022-09-13T15:57:38;23.70;65.70
68813;DHT22;55808;48.112;11.552;2022-09-13T16:00:06;23.70;65.20
68813;DHT22;55808;48.112;11.552;2022-09-13T16:02:32;23.60;67.60
68813;DHT22;55808;48.112;11.552;2022-09-13T16:04:58;23.50;67.30
68813;DHT22;55808;48.112;11.552;2022-09-13T16:07:24;23.40;68.90
68813;DHT22;55808;48.112;11.552;2022-09-13T16:09:51;23.30;69.90
68813;DHT22;55808;48.112;11.552;2022-09-13T16:12:17;23.20;71.00
68813;DHT22;55808;48.112;11.552;2022-09-13T16:14:44;23.10;72.00
68813;DHT22;55808;48.112;11.552;2022-09-13T16:17:18;23.10;72.60
68813;DHT22;55808;48.112;11.552;2022-09-13T16:19:44;23.10;71.40
68813;DHT22;55808;48.112;11.552;2022-09-13T16:22:10;23.10;73.90
68813;DHT22;55808;48.112;11.552;2022-09-13T16:24:36;23.10;73.70
68813;DHT22;55808;48.112;11.552;2022-09-13T16:27:03;23.10;74.90
68813;DHT22;55808;48.112;11.552;2022-09-13T16:29:29;23.10;73.70
68813;DHT22;55808;48.112;11.552;2022-09-13T16:31:54;23.10;72.10
68813;DHT22;55808;48.112;11.552;2022-09-13T16:34:22;23.00;75.70
68813;DHT22;55808;48.112;11.552;2022-09-13T16:36:47;22.90;77.20
68813;DHT22;55808;48.112;11.552;2022-09-13T16:39:13;22.80;77.30
68813;DHT22;55808;48.112;11.552;2022-09-13T16:41:39;22.80;76.30
68813;DHT22;55808;48.112;11.552;2022-09-13T16:44:05;22.70;76.80
68813;DHT22;55808;48.112;11.552;2022-09-13T16:46:31;22.70;75.40
68813;DHT22;55808;48.112;11.552;2022-09-13T16:48:58;22.60;75.80
68813;DHT22;55808;48.112;11.552;2022-09-13T16:51:24;22.50;75.70
68813;DHT22;55808;48.112;11.552;2022-09-13T16:53:51;22.40;76.00
68813;DHT22;55808;48.112;11.552;2022-09-13T16:56:19;22.30;77.10
68813;DHT22;55808;48.112;11.552;2022-09-13T16:58:48;22.20;76.60
68813;DHT22;55808;48.112;11.552;2022-09-13T17:01:16;22.20;79.50
68813;DHT22;55808;48.112;11.552;2022-09-13T17:03:42;22.10;77.60
68813;DHT22;55808;48.112;11.552;2022-09-13T17:06:10;22.10;78.90
68813;DHT22;55808;48.112;11.552;2022-09-13T17:08:37;22.00;79.90
68813;DHT22;55808;48.112;11.552;2022-09-13T17:11:09;22.00;81.00
68813;DHT22;55808;48.112;11.552;2022-09-13T17:13:36;21.90;81.90
68813;DHT22;55808;48.112;11.552;2022-09-13T17:16:03;21.80;82.80
68813;DHT22;55808;48.112;11.552;2022-09-13T17:18:29;21.70;83.20
68813;DHT22;55808;48.112;11.552;2022-09-13T17:20:54;21.60;82.10
68813;DHT22;55808;48.112;11.552;2022-09-13T17:23:20;21.60;80.80
68813;DHT22;55808;48.112;11.552;2022-09-13T17:25:47;21.50;83.10
68813;DHT22;55808;48.112;11.552;2022-09-13T17:28:14;21.30;84.60
68813;DHT22;55808;48.112;11.552;2022-09-13T17:30:40;21.20;83.30
68813;DHT22;55808;48.112;11.552;2022-09-13T17:33:06;21.10;85.80
68813;DHT22;55808;48.112;11.552;2022-09-13T17:35:33;21.00;85.60
68813;DHT22;55808;48.112;11.552;2022-09-13T17:37:59;21.00;87.00
68813;DHT22;55808;48.112;11.552;2022-09-13T17:40:26;21.00;86.70
68813;DHT22;55808;48.112;11.552;2022-09-13T17:42:52;21.00;86.50
68813;DHT22;55808;48.112;11.552;2022-09-13T17:45:18;20.90;86.00
68813;DHT22;55808;48.112;11.552;2022-09-13T17:47:45;20.80;86.20
68813;DHT22;55808;48.112;11.552;2022-09-13T17:50:11;20.70;87.20
68813;DHT22;55808;48.112;11.552;2022-09-13T17:52:37;20.70;87.70
68813;DHT22;55808;48.112;11.552;2022-09-13T17:55:03;20.60;89.10
68813;DHT22;55808;48.112;11.552;2022-09-13T17:57:29;20.60;88.50
68813;DHT22;55808;48.112;11.552;2022-09-13T17:59:54;20.60;89.50
68813;DHT22;55808;48.112;11.552;2022-09-13T18:02:21;20.50;90.20
68813;DHT22;55808;48.112;11.552;2022-09-13T18:04:48;20.50;90.10
68813;DHT22;55808;48.112;11.552;2022-09-13T18:07:15;20.40;90.20
68813;DHT22;55808;48.112;11.552;2022-09-13T18:09:43;20.40;90.10
68813;DHT22;55808;48.112;11.552;2022-09-13T18:12:10;20.30;90.40
68813;DHT22;55808;48.112;11.552;2022-09-13T18:14:36;20.30;90.20
68813;DHT22;55808;48.112;11.552;2022-09-13T18:17:03;20.30;90.20
68813;DHT22;55808;48.112;11.552;2022-09-13T18:19:35;20.30;89.90
68813;DHT22;55808;48.112;11.552;2022-09-13T18:22:00;20.20;90.20
68813;DHT22;55808;48.112;11.552;2022-09-13T18:24:26;20.10;90.40
68813;DHT22;55808;48.112;11.552;2022-09-13T18:26:52;20.10;90.80
68813;DHT22;55808;48.112;11.552;2022-09-13T18:29:17;20.00;90.50
68813;DHT22;55808;48.112;11.552;2022-09-13T18:31:43;20.00;90.70
68813;DHT22;55808;48.112;11.552;2022-09-13T18:34:10;20.00;91.30
68813;DHT22;55808;48.112;11.552;2022-09-13T18:36:37;19.90;90.90
68813;DHT22;55808;48.112;11.552;2022-09-13T18:39:04;20.00;91.50
68813;DHT22;55808;48.112;11.552;2022-09-13T18:41:33;19.90;91.80
68813;DHT22;55808;48.112;11.552;2022-09-13T18:43:59;19.90;91.70
68813;DHT22;55808;48.112;11.552;2022-09-13T18:46:27;19.80;92.00
68813;DHT22;55808;48.112;11.552;2022-09-13T18:48:57;19.80;92.10
68813;DHT22;55808;48.112;11.552;2022-09-13T18:51:28;19.80;92.60
68813;DHT22;55808;48.112;11.552;2022-09-13T18:53:55;19.80;92.90
68813;DHT22;55808;48.112;11.552;2022-09-13T18:56:23;19.80;92.70
68813;DHT22;55808;48.112;11.552;2022-09-13T18:58:49;19.80;92.90
68813;DHT22;55808;48.112;11.552;2022-09-13T19:01:20;19.70;93.50